Time;durP1;ratioP1;P1;durP2;ratioP2;P2;SDS_P1;SDS_P2;PMS_P1;PMS_P2;Temp;Humidity;BMP_temperature;BMP_pressure;BME280_temperature;BME280_humidity;BME280_pressure;Samples;Min_cycle;Max_cycle;Signal;HPM_P1;HPM_P2
2021/04/19 00:02:25;;;;;;;29.38;21.92;;;;;;;8.72;65.95;100412.38;5110511;28;20042;-69
2021/04/19 00:04:51;;;;;;;31.35;21.08;;;;;;;8.72;66.18;100406.34;5109128;28;20118;-70
2021/04/19 00:07:17;;;;;;;31.63;22.70;;;;;;;8.71;65.78;100409.75;5110416;28;20066;-71
2021/04/19 00:09:46;;;;;;;30.40;21.45;;;;;;;8.71;66.04;100413.19;5110282;28;20065;-68
2021/04/19 00:12:14;;;;;;;33.83;21.33;;;;;;;8.71;65.96;100412.34;5109940;28;20143;-69
2021/04/19 00:14:43;;;;;;;29.17;21.58;;;;;;;8.71;66.07;100404.59;5110078;28;20123;-68
2021/04/19 00:17:14;;;;;;;30.70;20.98;;;;;;;8.71;66.07;100400.28;5108920;28;20039;-69
2021/04/19 00:19:45;;;;;;;30.45;21.35;;;;;;;8.69;65.91;100394.19;5110145;28;20043;-68
2021/04/19 00:22:10;;;;;;;35.17;20.85;;;;;;;8.67;66.01;100391.56;5106894;28;20031;-69
2021/04/19 00:24:39;;;;;;;35.67;20.70;;;;;;;8.68;65.97;100400.19;5095868;28;20081;-70
2021/04/19 00:27:04;;;;;;;31.20;20.95;;;;;;;8.67;66.00;100393.25;5095989;28;20430;-69
2021/04/19 00:29:32;;;;;;;28.23;20.98;;;;;;;8.66;65.89;100392.41;5096663;28;20059;-68
2021/04/19 00:31:58;;;;;;;29.77;20.38;;;;;;;8.66;65.88;100392.41;5077797;28;20036;-68
2021/04/19 00:34:26;;;;;;;31.95;20.23;;;;;;;8.65;66.05;100387.16;5096311;28;20161;-71
2021/04/19 00:36:55;;;;;;;32.15;19.90;;;;;;;8.64;65.87;100383.72;5096450;28;20036;-68
2021/04/19 00:39:20;;;;;;;31.40;22.30;;;;;;;8.63;65.93;100392.31;5096412;28;20465;-68
2021/04/19 00:41:47;;;;;;;34.53;20.75;;;;;;;8.65;65.89;100397.50;5096641;28;20120;-69
2021/04/19 00:44:16;;;;;;;33.75;22.05;;;;;;;8.64;66.00;100390.63;5095655;28;20192;-69
2021/04/19 00:46:42;;;;;;;30.55;19.35;;;;;;;8.65;66.14;100398.41;5077632;28;20032;-72
2021/04/19 00:49:14;;;;;;;30.30;21.45;;;;;;;8.64;66.12;100395.78;5096317;28;20036;-71
2021/04/19 00:51:43;;;;;;;30.20;20.77;;;;;;;8.64;66.00;100395.78;5094803;28;20040;-69
2021/04/19 00:54:09;;;;;;;28.65;20.60;;;;;;;8.66;66.20;100394.09;5094764;28;20036;-69
2021/04/19 00:56:41;;;;;;;26.83;20.05;;;;;;;8.66;66.16;100391.50;5094745;28;20043;-68
2021/04/19 00:59:07;;;;;;;29.40;21.42;;;;;;;8.66;66.04;100394.09;5095868;28;20028;-70
2021/04/19 01:01:33;;;;;;;35.17;22.58;;;;;;;8.65;66.14;100384.59;5095762;28;20050;-69
2021/04/19 01:03:59;;;;;;;32.25;21.67;;;;;;;8.64;66.20;100385.44;5094620;28;20032;-69
2021/04/19 01:06:28;;;;;;;30.85;21.17;;;;;;;8.62;66.24;100382.81;5095741;28;20040;-69
2021/04/19 01:08:56;;;;;;;29.58;21.45;;;;;;;8.62;65.89;100389.69;5095487;28;20032;-71
2021/04/19 01:11:22;;;;;;;33.17;21.98;;;;;;;8.62;66.27;100395.72;5095394;28;20084;-68
2021/04/19 01:13:48;;;;;;;28.58;20.73;;;;;;;8.64;66.32;100390.63;5094312;28;20032;-69
2021/04/19 01:16:16;;;;;;;32.72;20.13;;;;;;;8.64;66.18;100385.44;5094280;28;20040;-68
2021/04/19 01:18:45;;;;;;;35.97;22.95;;;;;;;8.64;65.94;100383.72;5095080;28;20028;-68
2021/04/19 01:21:13;;;;;;;28.55;20.35;;;;;;;8.65;66.18;100385.47;5095423;28;20047;-68
2021/04/19 01:23:41;;;;;;;33.95;20.05;;;;;;;8.64;66.13;100380.28;5094439;28;20510;-69
2021/04/19 01:26:09;;;;;;;24.40;19.25;;;;;;;8.64;66.14;100378.56;5095131;28;20040;-69
2021/04/19 01:28:35;;;;;;;27.15;19.52;;;;;;;8.66;66.11;100386.34;5094696;28;20044;-70
2021/04/19 01:31:06;;;;;;;27.67;20.42;;;;;;;8.66;66.38;100391.50;5095337;28;20547;-69
2021/04/19 01:33:34;;;;;;;25.58;19.88;;;;;;;8.65;66.14;100388.06;5094081;28;20036;-69
2021/04/19 01:36:03;;;;;;;33.50;22.17;;;;;;;8.66;66.01;100388.94;5092887;28;20114;-68
2021/04/19 01:38:29;;;;;;;32.40;21.42;;;;;;;8.65;66.20;100387.16;5094876;28;20036;-69
2021/04/19 01:40:58;;;;;;;28.05;19.55;;;;;;;8.66;66.17;100386.34;5093633;28;20067;-70
2021/04/19 01:43:27;;;;;;;33.45;21.23;;;;;;;8.64;66.34;100373.41;5094639;28;20028;-68
2021/04/19 01:45:53;;;;;;;36.58;24.08;;;;;;;8.62;66.12;100376.78;5094906;28;20039;-69
2021/04/19 01:48:22;;;;;;;30.90;21.10;;;;;;;8.62;66.17;100369.03;5094880;28;20036;-69
2021/04/19 01:50:52;;;;;;;34.38;22.80;;;;;;;8.60;66.38;100370.69;5094760;28;20047;-69
2021/04/19 01:53:23;;;;;;;32.97;21.38;;;;;;;8.60;66.36;100368.09;5094720;28;20441;-68
2021/04/19 01:55:54;;;;;;;29.20;21.10;;;;;;;8.60;66.10;100376.72;5094661;28;20119;-70
2021/04/19 01:58:25;;;;;;;31.95;21.00;;;;;;;8.61;66.22;100370.72;5094584;28;20028;-70
2021/04/19 02:00:58;;;;;;;35.42;21.02;;;;;;;8.61;66.23;100373.28;5094693;28;20067;-70
2021/04/19 02:04:00;;;;;;;33.50;21.80;;;;;;;8.61;66.32;100370.72;5094515;28;20043;-69
2021/04/19 02:07:05;;;;;;;35.50;22.38;;;;;;;8.60;66.26;100365.50;5093350;28;20028;-69
2021/04/19 02:09:38;;;;;;;33.42;22.63;;;;;;;8.58;66.53;100365.44;5093559;28;20433;-68
2021/04/19 02:12:32;;;;;;;32.58;22.50;;;;;;;8.60;66.30;100365.50;5094494;28;20052;-68
2021/04/19 02:15:14;;;;;;;30.85;21.27;;;;;;;8.60;66.27;100361.22;5094653;28;20040;-69
2021/04/19 02:18:05;;;;;;;32.15;20.90;;;;;;;8.60;65.75;100360.34;5093441;28;20090;-68
2021/04/19 02:20:44;;;;;;;37.13;24.33;;;;;;;8.58;66.27;100362.88;5093184;28;20064;-69
2021/04/19 02:23:46;;;;;;;36.50;23.98;;;;;;;8.57;66.33;100353.34;5094522;28;20034;-69
2021/04/19 02:26:17;;;;;;;37.85;22.33;;;;;;;8.57;66.39;100357.66;5085794;28;20070;-70
2021/04/19 02:29:12;;;;;;;36.60;22.88;;;;;;;8.57;66.41;100358.53;5092672;28;20188;-69
2021/04/19 02:31:43;;;;;;;35.47;21.50;;;;;;;8.55;66.45;100355.06;5093241;28;20119;-70
2021/04/19 02:34:14;;;;;;;30.05;22.35;;;;;;;8.55;66.16;100356.75;5093745;28;20105;-70
2021/04/19 02:36:43;;;;;;;39.30;24.38;;;;;;;8.52;66.50;100353.22;5093043;28;20048;-70
2021/04/19 02:39:09;;;;;;;36.78;24.48;;;;;;;8.52;66.41;100355.81;5093900;28;20036;-70
2021/04/19 02:41:44;;;;;;;34.33;22.73;;;;;;;8.53;66.25;100356.72;5092359;28;20093;-70
2021/04/19 02:44:14;;;;;;;31.92;23.73;;;;;;;8.53;66.46;100354.97;5094374;28;20100;-71
2021/04/19 02:46:40;;;;;;;32.40;22.88;;;;;;;8.53;66.14;100352.41;5093729;28;20047;-70
2021/04/19 02:49:07;;;;;;;33.03;21.55;;;;;;;8.53;66.29;100356.72;5075759;28;20060;-68
2021/04/19 02:51:38;;;;;;;36.40;23.02;;;;;;;8.55;66.63;100351.56;5093956;28;20047;-70
2021/04/19 02:54:08;;;;;;;36.47;23.17;;;;;;;8.54;66.64;100350.72;5093831;28;20036;-70
2021/04/19 02:56:35;;;;;;;32.17;23.45;;;;;;;8.54;66.22;100353.28;5092460;28;20388;-68
2021/04/19 02:59:09;;;;;;;41.42;27.48;;;;;;;8.53;66.38;100354.97;5075568;28;20032;-70
2021/04/19 03:01:39;;;;;;;38.05;24.95;;;;;;;8.53;66.50;100346.38;5075048;28;20042;-70
2021/04/19 03:04:15;;;;;;;31.92;22.10;;;;;;;8.52;66.46;100342.03;5092307;28;20038;-71
2021/04/19 03:06:49;;;;;;;35.15;24.83;;;;;;;8.50;66.32;100336.81;5092400;28;20074;-70
2021/04/19 03:09:17;;;;;;;32.25;23.77;;;;;;;8.50;66.43;100336.81;5093890;28;20032;-69
2021/04/19 03:11:56;;;;;;;40.90;25.98;;;;;;;8.49;66.34;100337.63;5092896;28;20055;-70
2021/04/19 03:14:34;;;;;;;40.00;24.38;;;;;;;8.48;66.50;100343.66;5075423;28;20081;-69
2021/04/19 03:17:10;;;;;;;39.72;24.27;;;;;;;8.47;66.26;100339.28;5091871;28;20032;-68
2021/04/19 03:19:41;;;;;;;43.25;26.48;;;;;;;8.47;66.45;100335.81;5093688;28;20119;-68
2021/04/19 03:22:07;;;;;;;40.42;25.52;;;;;;;8.46;66.48;100334.06;5092425;28;20044;-68
2021/04/19 03:24:35;;;;;;;34.53;24.08;;;;;;;8.45;66.30;100332.31;5092417;28;20036;-68
2021/04/19 03:27:04;;;;;;;38.55;24.52;;;;;;;8.46;66.40;100331.47;5075208;28;20075;-68
2021/04/19 03:29:34;;;;;;;40.33;26.33;;;;;;;8.47;66.49;100335.81;5093500;28;20032;-69
2021/04/19 03:32:08;;;;;;;38.20;26.17;;;;;;;8.47;66.40;100336.72;5093266;28;20127;-69
2021/04/19 03:34:34;;;;;;;;;;;;;;;8.45;66.44;100335.78;5094031;28;20036;-69
2021/04/19 03:37:05;;;;;;;34.85;23.67;;;;;;;8.46;66.58;100331.47;5093353;28;19912;-69
2021/04/19 03:39:34;;;;;;;30.23;22.67;;;;;;;8.46;66.45;100331.47;5093382;28;20044;-69
2021/04/19 03:42:04;;;;;;;36.60;25.25;;;;;;;8.45;66.38;100330.63;5092236;28;20166;-69
2021/04/19 03:44:35;;;;;;;36.30;24.13;;;;;;;8.46;66.54;100323.72;5075085;28;20040;-69
2021/04/19 03:47:02;;;;;;;35.45;23.58;;;;;;;8.45;66.58;100330.63;5093295;28;20036;-69
2021/04/19 03:49:38;;;;;;;34.28;24.10;;;;;;;8.46;66.37;100328.91;5093122;28;20032;-68
2021/04/19 03:52:09;;;;;;;38.35;24.33;;;;;;;8.44;66.45;100334.03;5093213;28;20119;-71
2021/04/19 03:54:42;;;;;;;38.10;23.02;;;;;;;8.46;66.55;100331.47;5093268;28;20131;-70
2021/04/19 03:57:13;;;;;;;38.72;24.77;;;;;;;8.45;66.44;100334.88;5093151;28;20059;-70
2021/04/19 03:59:40;;;;;;;31.67;21.73;;;;;;;8.46;66.37;100331.47;5097233;28;20032;-68
2021/04/19 04:02:09;;;;;;;43.92;23.90;;;;;;;8.46;66.39;100329.78;5097141;28;20483;-71
2021/04/19 04:04:37;;;;;;;36.03;23.98;;;;;;;8.47;66.32;100330.66;5095431;28;20040;-69
2021/04/19 04:07:05;;;;;;;36.45;26.42;;;;;;;8.47;66.55;100315.16;5096837;28;20566;-69
2021/04/19 04:09:35;;;;;;;36.00;24.70;;;;;;;8.47;66.53;100326.38;5096518;28;20036;-69
2021/04/19 04:12:01;;;;;;;34.75;23.55;;;;;;;8.47;66.50;100328.97;5095414;28;20051;-69
2021/04/19 04:14:30;;;;;;;41.28;26.58;;;;;;;8.46;66.76;100326.31;5095703;28;20055;-69
2021/04/19 04:17:01;;;;;;;35.25;24.48;;;;;;;8.45;66.64;100322.88;5095371;28;20063;-69
2021/04/19 04:19:29;;;;;;;35.28;23.88;;;;;;;8.45;66.33;100328.03;5096835;28;20036;-69
2021/04/19 04:21:56;;;;;;;40.70;26.05;;;;;;;8.45;66.34;100329.72;5095437;28;20051;-68
2021/04/19 04:24:25;;;;;;;36.45;25.20;;;;;;;8.47;66.47;100339.28;5078648;28;20062;-69
2021/04/19 04:26:52;;;;;;;31.35;23.58;;;;;;;8.46;66.54;100336.66;5096638;28;20032;-69
2021/04/19 04:29:23;;;;;;;40.42;25.10;;;;;;;8.45;66.46;100338.38;5096435;28;20085;-69
2021/04/19 04:31:49;;;;;;;39.20;24.67;;;;;;;8.44;66.52;100344.38;5078135;28;20398;-69
2021/04/19 04:34:14;;;;;;;36.97;24.75;;;;;;;8.45;66.41;100340.06;5095093;28;20039;-69
2021/04/19 04:36:40;;;;;;;38.40;23.50;;;;;;;8.45;66.35;100340.06;5095720;28;20035;-68
2021/04/19 04:39:05;;;;;;;36.22;24.13;;;;;;;8.44;66.55;100341.78;5096992;28;20032;-68
2021/04/19 04:41:36;;;;;;;38.17;24.90;;;;;;;8.44;66.61;100334.03;5094882;28;20032;-69
2021/04/19 04:44:05;;;;;;;36.60;24.60;;;;;;;8.43;66.74;100334.84;5095171;28;20047;-69
2021/04/19 04:46:57;;;;;;;39.88;25.25;;;;;;;8.44;66.53;100327.97;5078195;28;20066;-70
2021/04/19 04:49:27;;;;;;;33.78;23.20;;;;;;;8.42;66.50;100322.78;5095867;28;20035;-68
2021/04/19 04:51:57;;;;;;;33.03;24.20;;;;;;;8.41;66.70;100328.78;5095824;28;20138;-68
2021/04/19 04:54:24;;;;;;;41.00;24.33;;;;;;;8.41;66.61;100331.34;5094845;28;20032;-68
2021/04/19 04:56:52;;;;;;;38.10;25.83;;;;;;;8.40;66.63;100332.19;5095818;28;20434;-71
2021/04/19 04:59:20;;;;;;;34.35;24.08;;;;;;;8.39;66.47;100333.00;5095657;28;20028;-68
2021/04/19 05:01:49;;;;;;;35.17;25.42;;;;;;;8.37;66.38;100327.81;5095226;28;20093;-70
2021/04/19 05:04:18;;;;;;;31.60;23.08;;;;;;;8.37;66.33;100330.41;5095156;28;20045;-70
2021/04/19 05:06:44;;;;;;;36.92;25.35;;;;;;;8.36;66.40;100325.16;5094544;28;20063;-70
2021/04/19 05:11:25;;;;;;;39.88;26.98;;;;;;;8.32;66.36;100331.09;5152746;27;20367;-69
2021/04/19 05:13:58;;;;;;;41.72;25.95;;;;;;;8.32;66.55;100325.94;5133898;27;20062;-68
2021/04/19 05:16:27;;;;;;;45.63;29.10;;;;;;;8.30;66.54;100328.44;5152568;27;20031;-70
2021/04/19 05:18:53;;;;;;;43.90;26.67;;;;;;;8.30;66.51;100331.03;5152428;27;20081;-70
2021/04/19 05:21:19;;;;;;;39.83;27.65;;;;;;;8.30;66.39;100333.59;5152305;27;20027;-70
2021/04/19 05:23:50;;;;;;;38.97;26.40;;;;;;;8.30;66.63;100325.88;5133630;27;20027;-70
2021/04/19 05:26:16;;;;;;;42.75;28.10;;;;;;;8.30;66.44;100333.59;5152129;27;20046;-71
2021/04/19 05:28:45;;;;;;;40.22;26.67;;;;;;;8.31;66.62;100339.66;5133923;27;20073;-71
2021/04/19 05:31:14;;;;;;;42.75;28.27;;;;;;;8.29;66.74;100346.50;5152163;27;20041;-71
2021/04/19 05:33:39;;;;;;;38.92;26.75;;;;;;;8.30;66.67;100343.09;5151997;27;20031;-70
2021/04/19 05:36:10;;;;;;;49.22;29.38;;;;;;;8.29;66.72;100349.94;5133921;27;20076;-71
2021/04/19 05:38:37;;;;;;;46.78;28.80;;;;;;;8.29;66.60;100343.91;5152336;27;20042;-70
2021/04/19 05:41:03;;;;;;;45.65;26.42;;;;;;;8.30;66.67;100350.81;5151568;27;20042;-70
2021/04/19 05:43:35;;;;;;;40.28;27.35;;;;;;;8.29;66.40;100359.41;5133782;27;20031;-70
2021/04/19 05:46:01;;;;;;;48.20;29.40;;;;;;;8.29;66.58;100352.53;5152172;27;20035;-70
2021/04/19 05:48:30;;;;;;;47.38;28.15;;;;;;;8.30;66.46;100361.16;5151909;27;20062;-70
2021/04/19 05:51:04;;;;;;;49.10;29.30;;;;;;;8.27;66.58;100359.34;5133482;27;20421;-70
2021/04/19 05:53:35;;;;;;;49.28;29.83;;;;;;;8.26;66.50;100357.59;5115992;27;20485;-71
2021/04/19 05:56:12;;;;;;;49.38;28.15;;;;;;;8.27;66.79;100367.09;5151771;27;20031;-70
2021/04/19 05:58:56;;;;;;;50.58;29.60;;;;;;;8.25;66.79;100355.84;5152103;27;20053;-70
2021/04/19 06:01:24;;;;;;;46.90;31.83;;;;;;;8.24;66.64;100354.09;5133440;27;20043;-68
2021/04/19 06:04:15;;;;;;;46.58;30.10;;;;;;;8.24;66.62;100359.28;5133229;27;20035;-69
2021/04/19 06:07:01;;;;;;;54.83;32.08;;;;;;;8.22;66.59;100355.75;5151252;27;20038;-69
2021/04/19 06:09:41;;;;;;;53.60;31.20;;;;;;;8.20;66.79;100358.28;5124972;28;20078;-69
2021/04/19 06:12:10;;;;;;;50.80;30.63;;;;;;;8.21;66.30;100356.59;5110437;28;20135;-69
2021/04/19 06:14:41;;;;;;;58.72;33.88;;;;;;;8.20;66.62;100354.84;5110305;28;20032;-69
2021/04/19 06:17:08;;;;;;;53.38;32.17;;;;;;;8.19;66.77;100359.09;5091709;28;20048;-69
2021/04/19 06:19:37;;;;;;;52.33;32.22;;;;;;;8.19;66.72;100358.25;5110515;28;20035;-70
2021/04/19 06:22:02;;;;;;;58.85;33.80;;;;;;;8.20;66.79;100357.41;5100484;28;20174;-70
2021/04/19 06:24:28;;;;;;;49.40;31.92;;;;;;;8.19;66.44;100353.94;5096481;28;20075;-69
2021/04/19 06:26:58;;;;;;;44.70;31.27;;;;;;;8.19;66.46;100359.09;5096379;28;20039;-69
2021/04/19 06:29:30;;;;;;;53.83;32.53;;;;;;;8.20;66.87;100365.16;5096397;28;20047;-69
2021/04/19 06:32:07;;;;;;;48.42;31.48;;;;;;;8.21;66.51;100366.91;5096109;28;20174;-69
2021/04/19 06:34:35;;;;;;;58.70;34.38;;;;;;;8.21;66.83;100354.88;5095913;28;20040;-69
2021/04/19 06:37:04;;;;;;;63.92;38.95;;;;;;;8.22;67.00;100358.34;5095327;28;20037;-69
2021/04/19 06:39:32;;;;;;;60.13;36.45;;;;;;;8.21;66.73;100354.00;5094813;28;20042;-69
2021/04/19 06:42:06;;;;;;;53.35;33.45;;;;;;;8.19;66.68;100353.94;5094999;28;20036;-70
2021/04/19 06:44:32;;;;;;;58.50;35.33;;;;;;;8.20;66.85;100354.84;5096275;28;20090;-70
2021/04/19 06:47:00;;;;;;;62.28;35.13;;;;;;;8.20;66.51;100365.16;5094633;28;20448;-69
2021/04/19 06:49:32;;;;;;;53.50;33.40;;;;;;;8.22;66.85;100360.91;5078072;28;20089;-69
2021/04/19 06:52:01;;;;;;;61.13;36.85;;;;;;;8.20;66.92;100358.28;5078273;28;20047;-69
2021/04/19 06:54:34;;;;;;;59.50;37.15;;;;;;;8.21;66.76;100364.34;5094760;28;20043;-69
2021/04/19 06:57:07;;;;;;;55.30;36.83;;;;;;;8.20;66.63;100358.28;5095033;28;20032;-69
2021/04/19 06:59:37;;;;;;;69.65;38.75;;;;;;;8.20;66.94;100363.44;5095635;28;20483;-70
2021/04/19 07:02:13;;;;;;;55.78;36.10;;;;;;;8.20;66.85;100363.44;5094586;28;20506;-69
2021/04/19 07:04:39;;;;;;;55.97;36.90;;;;;;;8.20;66.73;100360.84;5095726;28;20035;-69
2021/04/19 07:07:07;;;;;;;60.17;36.88;;;;;;;8.21;66.58;100359.16;5095335;28;20070;-69
2021/04/19 07:09:45;;;;;;;59.22;36.28;;;;;;;8.22;66.91;100356.63;5105655;27;20096;-69
2021/04/19 07:12:18;;;;;;;62.40;36.10;;;;;;;8.22;66.80;100345.44;5118448;27;20035;-69
2021/04/19 07:14:47;;;;;;;64.30;37.95;;;;;;;8.22;66.92;100343.72;5118219;27;20092;-70
2021/04/19 07:17:16;;;;;;;65.55;35.60;;;;;;;8.23;66.80;100344.59;5118114;27;20482;-69
2021/04/19 07:19:43;;;;;;;57.83;35.63;;;;;;;8.23;66.65;100350.63;5100321;27;20034;-69
2021/04/19 07:22:19;;;;;;;58.67;35.35;;;;;;;8.22;66.69;100343.72;5118146;27;20446;-69
2021/04/19 07:24:47;;;;;;;63.95;37.00;;;;;;;8.21;66.66;100344.53;5136109;27;20063;-69
2021/04/19 07:27:17;;;;;;;64.50;36.17;;;;;;;8.20;67.03;100344.50;5117714;27;20088;-69
2021/04/19 07:29:48;;;;;;;64.57;38.47;;;;;;;8.17;66.80;100342.72;5136008;27;20490;-69
2021/04/19 07:32:40;;;;;;;61.00;34.60;;;;;;;8.17;66.79;100336.66;5135572;27;20091;-69
2021/04/19 07:35:09;;;;;;;54.40;34.95;;;;;;;8.16;66.66;100338.38;5135766;27;20035;-69
2021/04/19 07:37:35;;;;;;;58.15;36.05;;;;;;;8.16;66.94;100333.22;5117894;27;20035;-70
2021/04/19 07:40:06;;;;;;;60.67;37.22;;;;;;;8.15;67.08;100334.03;5135890;27;20031;-69
2021/04/19 07:42:37;;;;;;;54.03;33.40;;;;;;;8.15;66.95;100331.47;5117512;27;20039;-70
2021/04/19 07:45:04;;;;;;;51.90;31.65;;;;;;;8.17;67.06;100332.38;5117259;27;20035;-70
2021/04/19 07:47:37;;;;;;;54.85;33.25;;;;;;;8.15;66.96;100333.16;5117120;27;20059;-69
2021/04/19 07:50:12;;;;;;;57.58;36.05;;;;;;;8.15;66.93;100335.72;5135557;27;20116;-69
2021/04/19 07:52:59;;;;;;;56.97;36.03;;;;;;;8.14;66.92;100327.13;5135811;27;20066;-70
2021/04/19 07:55:27;;;;;;;54.33;32.97;;;;;;;8.14;66.93;100328.81;5135661;27;20097;-70
2021/04/19 07:57:57;;;;;;;56.42;33.10;;;;;;;8.13;67.23;100319.31;5100145;27;20039;-69
2021/04/19 08:00:32;;;;;;;50.50;32.42;;;;;;;8.15;66.80;100323.72;5117430;27;20031;-69
2021/04/19 08:03:10;;;;;;;54.42;32.42;;;;;;;8.15;67.18;100317.66;5117233;27;20034;-69
2021/04/19 08:05:51;;;;;;;60.20;34.88;;;;;;;8.15;67.05;100318.56;5135430;27;20478;-69
2021/04/19 08:08:38;;;;;;;56.17;34.33;;;;;;;8.14;67.02;100318.50;5117447;27;20111;-70
2021/04/19 08:11:15;;;;;;;50.78;32.97;;;;;;;8.13;66.79;100309.88;5134951;27;20039;-70
2021/04/19 08:13:42;;;;;;;55.05;33.75;;;;;;;8.12;67.09;100315.88;5116885;27;20117;-70
2021/04/19 08:16:26;;;;;;;57.42;33.78;;;;;;;8.13;66.97;100315.03;5135172;27;20039;-69
2021/04/19 08:19:05;;;;;;;57.85;31.98;;;;;;;8.12;67.14;100310.72;5135074;27;20053;-70
2021/04/19 08:21:32;;;;;;;57.38;33.30;;;;;;;8.14;67.21;100318.50;5116962;27;20038;-69
2021/04/19 08:24:11;;;;;;;49.45;30.75;;;;;;;8.13;66.88;100311.56;5134898;27;20035;-70
2021/04/19 08:27:00;;;;;;;49.00;32.92;;;;;;;8.13;67.13;100320.22;5135242;27;20043;-69
2021/04/19 08:29:45;;;;;;;53.38;33.03;;;;;;;8.13;67.14;100317.63;5135591;27;20034;-69
2021/04/19 08:32:16;;;;;;;50.17;30.17;;;;;;;8.15;67.45;100322.81;5134840;27;20039;-71
2021/04/19 08:34:50;;;;;;;49.65;30.13;;;;;;;8.16;67.29;100320.31;5116575;27;20478;-70
2021/04/19 08:37:20;;;;;;;51.83;31.67;;;;;;;8.16;67.13;100328.06;5134323;27;20490;-69
2021/04/19 08:39:47;;;;;;;51.95;33.13;;;;;;;8.16;67.28;100327.16;5116563;28;20031;-71
2021/04/19 08:42:16;;;;;;;46.47;28.73;;;;;;;8.18;67.22;100325.50;5134828;27;20367;-69
2021/04/19 08:44:45;;;;;;;51.53;30.98;;;;;;;8.18;67.22;100328.94;5134069;27;20035;-71
2021/04/19 08:47:26;;;;;;;53.30;30.65;;;;;;;8.20;67.20;100326.44;5134757;27;20080;-71
2021/04/19 08:49:55;;;;;;;46.30;30.25;;;;;;;8.21;67.48;100323.88;5134592;27;20027;-70
2021/04/19 08:52:22;;;;;;;51.60;29.58;;;;;;;8.20;67.27;100324.72;5134965;27;20119;-71
2021/04/19 08:54:47;;;;;;;54.00;29.33;;;;;;;8.21;67.30;100330.78;5134506;27;20046;-71
2021/04/19 08:57:13;;;;;;;47.30;29.00;;;;;;;8.23;67.35;100327.38;5134490;27;20039;-68
2021/04/19 08:59:45;;;;;;;45.75;27.23;;;;;;;8.22;67.51;100323.06;5099567;28;20043;-70
2021/04/19 09:02:14;;;;;;;48.85;29.65;;;;;;;8.24;67.27;100320.53;5134421;27;20035;-69
2021/04/19 09:04:39;;;;;;;49.83;27.88;;;;;;;8.25;67.26;100322.28;5134161;27;20031;-69
2021/04/19 09:07:09;;;;;;;49.88;29.48;;;;;;;8.24;67.04;100320.53;5134788;27;20039;-70
2021/04/19 09:09:36;;;;;;;46.72;29.40;;;;;;;8.26;67.38;100310.25;5134438;27;20130;-68
2021/04/19 09:12:10;;;;;;;49.75;28.90;;;;;;;8.26;67.21;100315.41;5134551;28;20035;-71
2021/04/19 09:14:45;;;;;;;50.80;29.98;;;;;;;8.25;67.12;100306.78;5115775;28;20401;-70
2021/04/19 09:17:26;;;;;;;48.15;29.52;;;;;;;8.26;67.65;100312.81;5116760;28;20046;-71
2021/04/19 09:19:59;;;;;;;52.10;30.05;;;;;;;8.25;67.58;100313.66;5134461;28;20122;-71
2021/04/19 09:22:33;;;;;;;48.92;29.30;;;;;;;8.25;67.31;100311.97;5099201;28;20049;-71
2021/04/19 09:25:01;;;;;;;49.85;30.30;;;;;;;8.26;67.35;100315.41;5099152;28;20062;-70
2021/04/19 09:27:48;;;;;;;49.13;28.77;;;;;;;8.24;67.26;100305.03;5134527;28;20244;-70
2021/04/19 09:33:06;;;;;;;49.08;29.52;;;;;;;8.25;67.55;100308.47;5134255;28;20121;-69
2021/04/19 09:35:52;;;;;;;45.53;27.57;;;;;;;8.26;67.55;100307.66;5115377;28;20028;-69
2021/04/19 09:38:33;;;;;;;41.53;29.00;;;;;;;8.26;67.34;100311.09;5134097;28;20095;-71
2021/04/19 09:41:01;;;;;;;46.15;29.02;;;;;;;8.27;67.52;100312.00;5115744;28;20175;-69
2021/04/19 09:43:42;;;;;;;52.13;31.10;;;;;;;8.26;67.40;100313.69;5115424;28;20031;-69
2021/04/19 09:46:17;;;;;;;51.83;30.83;;;;;;;8.28;67.73;100311.16;5134031;28;20035;-71
2021/04/19 09:48:42;;;;;;;54.33;30.52;;;;;;;8.29;67.70;100305.16;5115524;28;20035;-68
2021/04/19 09:51:45;;;;;;;46.92;29.52;;;;;;;8.29;67.55;100316.38;5115697;28;20042;-69
2021/04/19 09:54:18;;;;;;;49.22;29.13;;;;;;;8.29;67.34;100310.34;5072490;28;20051;-71
2021/04/19 09:56:49;;;;;;;56.45;30.67;;;;;;;8.29;67.41;100298.28;5117443;27;20050;-71
2021/04/19 09:59:24;;;;;;;45.10;28.23;;;;;;;8.32;67.40;100305.28;5137782;27;20175;-71
2021/04/19 10:01:52;;;;;;;46.17;28.10;;;;;;;8.33;67.43;100309.59;5138079;27;20039;-70
2021/04/19 10:04:27;;;;;;;46.67;29.48;;;;;;;8.32;67.57;100298.38;5137931;27;20031;-71
2021/04/19 10:07:06;;;;;;;49.67;29.00;;;;;;;8.31;67.85;100290.59;5137830;27;20037;-70
2021/04/19 10:09:44;;;;;;;47.58;27.73;;;;;;;8.31;67.68;100290.59;5137649;27;20091;-70
2021/04/19 10:12:17;;;;;;;48.63;29.65;;;;;;;8.32;67.30;100284.59;5102586;27;20107;-71
2021/04/19 10:14:50;;;;;;;41.60;26.90;;;;;;;8.32;67.58;100287.19;5119606;27;20039;-71
2021/04/19 10:17:22;;;;;;;47.47;28.43;;;;;;;8.31;67.59;100290.59;5119352;27;20035;-69
2021/04/19 10:19:49;;;;;;;48.85;27.90;;;;;;;8.30;67.54;100288.84;5137625;27;20035;-70
2021/04/19 10:22:17;;;;;;;46.05;28.15;;;;;;;8.31;67.67;100282.84;5137808;27;20122;-71
2021/04/19 10:24:56;;;;;;;48.08;28.45;;;;;;;8.33;67.57;100288.94;5118720;27;20033;-71
2021/04/19 10:27:31;;;;;;;45.20;27.98;;;;;;;8.31;67.52;100282.84;5118974;27;20115;-70
2021/04/19 10:30:16;;;;;;;43.55;26.90;;;;;;;8.34;67.31;100286.41;5118929;27;20035;-70
2021/04/19 10:32:48;;;;;;;43.75;26.95;;;;;;;8.35;67.39;100287.25;5137555;27;20038;-69
2021/04/19 10:35:36;;;;;;;41.60;25.10;;;;;;;8.36;67.51;100289.00;5119026;27;20157;-70
2021/04/19 10:38:03;;;;;;;44.28;27.75;;;;;;;8.36;67.42;100278.69;5136983;27;20504;-70
2021/04/19 10:40:30;;;;;;;42.60;27.15;;;;;;;8.36;67.50;100277.00;5118575;27;20062;-70
2021/04/19 10:43:07;;;;;;;49.88;26.50;;;;;;;8.39;67.50;100281.34;5118657;27;20059;-69
2021/04/19 10:45:44;;;;;;;42.08;25.30;;;;;;;8.38;67.36;100274.44;5118555;27;20035;-70
2021/04/19 10:48:21;;;;;;;50.95;27.63;;;;;;;8.36;67.66;100277.00;5118730;27;20031;-70
2021/04/19 10:50:51;;;;;;;44.55;27.33;;;;;;;8.36;67.70;100279.56;5118481;27;20151;-70
2021/04/19 10:53:32;;;;;;;45.00;28.65;;;;;;;8.37;67.65;100278.75;5136845;27;20168;-69
2021/04/19 10:56:00;;;;;;;44.50;27.77;;;;;;;8.38;67.75;100277.91;5118519;27;20031;-71
2021/04/19 10:58:29;;;;;;;43.92;28.67;;;;;;;8.40;67.54;100277.09;5136785;27;20083;-71
2021/04/19 11:00:59;;;;;;;43.20;28.50;;;;;;;8.42;67.71;100272.81;5136339;27;20027;-71
2021/04/19 11:03:36;;;;;;;44.22;28.02;;;;;;;8.43;67.71;100284.91;5136676;27;20474;-71
2021/04/19 11:06:08;;;;;;;41.70;26.77;;;;;;;8.44;67.66;100284.06;5118444;27;20031;-71
2021/04/19 11:08:49;;;;;;;50.28;28.23;;;;;;;8.43;67.72;100278.03;5136596;27;20039;-71
2021/04/19 11:11:30;;;;;;;52.75;28.25;;;;;;;8.45;67.71;100280.66;5136612;27;20047;-70
2021/04/19 11:14:08;;;;;;;46.85;26.73;;;;;;;8.44;67.59;100274.63;5136157;27;20027;-70
2021/04/19 11:16:49;;;;;;;42.72;26.10;;;;;;;8.45;67.56;100270.31;5117809;27;20486;-70
2021/04/19 11:19:34;;;;;;;40.42;26.25;;;;;;;8.46;67.70;100278.13;5136427;27;20031;-70
2021/04/19 11:22:17;;;;;;;44.03;27.67;;;;;;;8.46;67.55;100277.25;5136146;27;20035;-70
2021/04/19 11:24:48;;;;;;;42.72;27.77;;;;;;;8.47;67.69;100276.41;5101315;27;20444;-70
2021/04/19 11:27:16;;;;;;;38.90;25.08;;;;;;;8.48;67.58;100275.59;5100682;27;20510;-70
2021/04/19 11:29:43;;;;;;;40.80;27.55;;;;;;;8.50;67.61;100273.94;5135962;27;20024;-70
2021/04/19 11:32:29;;;;;;;40.83;26.52;;;;;;;8.49;67.83;100267.88;5136254;27;20049;-71
2021/04/19 11:34:55;;;;;;;41.88;26.60;;;;;;;8.47;67.60;100264.38;5100254;27;20067;-71
2021/04/19 11:37:37;;;;;;;44.67;27.45;;;;;;;8.49;67.69;100261.88;5135833;27;20066;-70
2021/04/19 11:40:30;;;;;;;46.25;26.70;;;;;;;8.50;67.82;100266.19;5100102;27;20066;-71
2021/04/19 11:42:56;;;;;;;38.28;24.35;;;;;;;8.51;67.71;100266.22;5135773;27;20068;-70
2021/04/19 11:45:27;;;;;;;39.28;24.70;;;;;;;8.52;67.78;100272.28;5117439;27;20085;-71